Time;durP1;ratioP1;P1;durP2;ratioP2;P2;SDS_P1;SDS_P2;PMS_P1;PMS_P2;Temp;Humidity;BMP_temperature;BMP_pressure;BME280_temperature;BME280_humidity;BME280_pressure;Samples;Min_cycle;Max_cycle;Signal;HPM_P1;HPM_P2
2023/12/03 00:00:27;;;;;;;13.95;8.38;;;;;;;-1.26;82.77;101504.78;5098554;28;20041;-69
2023/12/03 00:02:53;;;;;;;15.75;8.75;;;;;;;-1.34;82.71;101485.97;5116416;28;20067;-69
2023/12/03 00:05:19;;;;;;;13.90;8.32;;;;;;;-1.27;82.83;101502.22;5115393;28;20023;-68
2023/12/03 00:07:45;;;;;;;16.23;8.88;;;;;;;-1.32;83.07;101504.34;5116584;28;20032;-68
2023/12/03 00:10:10;;;;;;;16.10;8.88;;;;;;;-1.38;82.98;101499.50;5115210;28;20028;-68
2023/12/03 00:12:38;;;;;;;16.55;8.50;;;;;;;-1.35;83.49;101510.69;5115020;28;20024;-68
2023/12/03 00:15:05;;;;;;;16.92;8.75;;;;;;;-1.26;82.62;101494.22;5116573;28;20081;-68
2023/12/03 00:17:30;;;;;;;11.45;7.70;;;;;;;-1.06;82.04;101513.97;5115961;28;20035;-69
2023/12/03 00:19:55;;;;;;;14.90;8.65;;;;;;;-1.00;81.48;101516.16;5115475;28;20038;-68
2023/12/03 00:22:21;;;;;;;14.98;8.30;;;;;;;-0.92;81.23;101518.28;5115198;28;20023;-68
2023/12/03 00:24:47;;;;;;;16.65;8.93;;;;;;;-0.89;81.33;101514.56;5116553;28;20035;-68
2023/12/03 00:27:12;;;;;;;13.45;8.15;;;;;;;-0.79;80.93;101523.56;5098327;28;20039;-68
2023/12/03 00:29:37;;;;;;;13.98;8.57;;;;;;;-0.82;80.58;101515.84;5116174;28;20465;-68
2023/12/03 00:32:03;;;;;;;13.70;8.55;;;;;;;-1.03;80.83;101495.25;5116574;28;20073;-68
2023/12/03 00:34:29;;;;;;;13.43;8.02;;;;;;;-0.82;80.70;101518.50;5115431;28;20031;-68
2023/12/03 00:36:54;;;;;;;13.02;8.75;;;;;;;-0.78;81.05;101519.97;5115367;28;20068;-68
2023/12/03 00:39:19;;;;;;;14.95;8.23;;;;;;;-0.76;80.81;101507.50;5116424;28;20053;-68
2023/12/03 00:41:45;;;;;;;15.23;9.52;;;;;;;-0.71;80.47;101510.63;5115071;28;20032;-68
2023/12/03 00:44:10;;;;;;;14.70;8.48;;;;;;;-0.57;80.27;101526.34;5115876;28;20032;-68
2023/12/03 00:46:35;;;;;;;13.35;8.25;;;;;;;-0.54;80.06;101526.13;5114581;28;20035;-68
2023/12/03 00:49:01;;;;;;;12.43;8.57;;;;;;;-0.62;79.78;101509.16;5097859;28;20036;-68
2023/12/03 00:51:26;;;;;;;13.38;8.23;;;;;;;-0.49;79.62;101531.13;5116090;28;20015;-69
2023/12/03 00:53:51;;;;;;;12.57;8.07;;;;;;;-0.50;80.04;101526.75;5110728;28;20110;-68
2023/12/03 00:56:17;;;;;;;15.85;9.40;;;;;;;-0.48;79.56;101525.69;5113324;28;20036;-69
2023/12/03 00:58:42;;;;;;;14.25;8.07;;;;;;;-0.50;79.79;101530.28;5120159;28;20048;-68
2023/12/03 01:01:08;;;;;;;11.75;8.07;;;;;;;-0.75;79.77;101509.19;5118913;28;20024;-68
2023/12/03 01:03:34;;;;;;;12.40;8.32;;;;;;;-0.77;80.22;101519.84;5101960;28;20035;-69
2023/12/03 01:06:00;;;;;;;13.20;8.18;;;;;;;-0.76;80.50;101533.91;5101982;28;20031;-68
2023/12/03 01:08:25;;;;;;;13.57;8.60;;;;;;;-0.91;80.89;101530.53;5120055;28;20039;-69
2023/12/03 01:10:50;;;;;;;13.18;7.93;;;;;;;-0.92;81.29;101543.88;5101957;28;20394;-69
2023/12/03 01:13:16;;;;;;;13.25;8.23;;;;;;;-1.06;81.03;101521.91;5102027;28;20023;-68
2023/12/03 01:15:44;;;;;;;15.13;8.45;;;;;;;-0.84;81.41;101539.72;5101596;28;20036;-68
2023/12/03 01:18:10;;;;;;;12.68;7.68;;;;;;;-0.79;80.97;101540.25;5119912;28;20037;-69
2023/12/03 01:20:35;;;;;;;12.80;7.82;;;;;;;-0.81;80.66;101547.44;5118773;28;20486;-69
2023/12/03 01:23:01;;;;;;;13.63;8.10;;;;;;;-0.82;80.80;101550.19;5101457;28;20077;-68
2023/12/03 01:25:27;;;;;;;12.68;7.47;;;;;;;-0.86;81.16;101548.69;5119063;28;20042;-68
2023/12/03 01:27:52;;;;;;;12.82;7.97;;;;;;;-1.07;81.21;101548.41;5119835;28;20416;-68
2023/12/03 01:30:18;;;;;;;12.77;7.88;;;;;;;-1.17;81.98;101552.63;5118119;28;20027;-68
2023/12/03 01:32:43;;;;;;;12.43;7.60;;;;;;;-1.05;82.07;101555.28;5101291;28;20027;-69
2023/12/03 01:35:08;;;;;;;11.65;7.47;;;;;;;-0.83;81.27;101559.94;5083995;28;20032;-68
2023/12/03 01:37:34;;;;;;;11.82;7.70;;;;;;;-0.73;80.41;101552.16;5117160;28;20028;-68
2023/12/03 01:39:59;;;;;;;12.13;7.68;;;;;;;-0.69;80.26;101556.31;5097093;28;20476;-69
2023/12/03 01:42:25;;;;;;;11.70;7.18;;;;;;;-0.63;80.19;101561.16;5100625;28;20027;-68
2023/12/03 01:44:53;;;;;;;13.55;7.95;;;;;;;-0.65;80.00;101543.72;5118623;28;20533;-69
2023/12/03 01:47:20;;;;;;;12.25;7.35;;;;;;;-0.61;79.81;101556.59;5119135;28;20031;-68
2023/12/03 01:49:47;;;;;;;11.30;7.20;;;;;;;-0.55;79.71;101550.06;5101103;27;20044;-68
2023/12/03 01:52:14;;;;;;;12.90;7.90;;;;;;;-0.47;79.58;101553.81;5119452;28;20028;-68
2023/12/03 01:54:43;;;;;;;14.40;8.13;;;;;;;-0.61;80.10;101551.31;5117992;28;20031;-68
2023/12/03 01:57:08;;;;;;;12.70;7.53;;;;;;;-0.61;79.69;101555.75;5118007;28;20385;-68
2023/12/03 01:59:35;;;;;;;12.18;7.78;;;;;;;-0.62;80.05;101557.56;5119317;28;20039;-68
2023/12/03 02:02:00;;;;;;;12.05;7.65;;;;;;;-0.74;80.23;101559.25;5118255;28;20114;-68
2023/12/03 02:04:25;;;;;;;12.98;7.93;;;;;;;-0.65;80.17;101556.94;5118014;28;20051;-69
2023/12/03 02:06:51;;;;;;;12.45;7.97;;;;;;;-0.66;79.69;101561.38;5117876;28;20024;-68
2023/12/03 02:09:16;;;;;;;13.40;7.70;;;;;;;-0.71;79.63;101559.03;5118684;28;20039;-68
2023/12/03 02:11:45;;;;;;;13.68;8.00;;;;;;;-0.65;79.45;101555.13;5100761;28;20031;-68
2023/12/03 02:14:11;;;;;;;12.55;7.88;;;;;;;-0.68;79.09;101559.78;5117161;28;20090;-68
2023/12/03 02:16:36;;;;;;;13.93;7.82;;;;;;;-0.88;79.46;101532.13;5118789;28;20069;-69
2023/12/03 02:19:02;;;;;;;16.02;7.97;;;;;;;-0.72;79.32;101562.66;5117169;28;20024;-68
2023/12/03 02:21:31;;;;;;;13.45;8.57;;;;;;;-0.84;79.27;101554.72;5116734;28;20424;-68
2023/12/03 02:23:56;;;;;;;12.35;7.72;;;;;;;-0.82;79.45;101558.13;5117021;28;20039;-68
2023/12/03 02:26:21;;;;;;;13.48;8.15;;;;;;;-0.81;79.91;101559.81;5118019;28;20023;-68
2023/12/03 02:28:50;;;;;;;13.13;7.55;;;;;;;-0.87;79.13;101566.34;5116804;28;20045;-69
2023/12/03 02:31:15;;;;;;;13.20;7.88;;;;;;;-0.84;79.36;101563.50;5114344;28;20031;-69
2023/12/03 02:33:50;;;;;;;12.30;8.32;;;;;;;-1.08;79.98;101542.28;5114294;28;20219;-69
2023/12/03 02:36:15;;;;;;;;;;;;;;;-0.92;79.34;101565.00;5117467;28;20035;-68
2023/12/03 02:38:40;;;;;;;11.60;7.15;;;;;;;-1.01;79.31;101563.81;5117865;28;19980;-69
2023/12/03 02:41:07;;;;;;;14.30;8.27;;;;;;;-1.01;79.63;101567.31;5117397;28;20027;-68
2023/12/03 02:43:32;;;;;;;13.20;7.65;;;;;;;-1.00;79.49;101570.78;5116797;28;20036;-69
2023/12/03 02:45:58;;;;;;;11.93;7.88;;;;;;;-1.00;79.45;101571.63;5116894;28;20032;-68
2023/12/03 02:48:23;;;;;;;13.50;8.15;;;;;;;-1.00;79.13;101579.56;5083355;28;20032;-69
2023/12/03 02:50:48;;;;;;;12.93;8.07;;;;;;;-1.00;79.40;101573.44;5118070;28;20064;-69
2023/12/03 02:53:14;;;;;;;13.10;8.10;;;;;;;-1.04;79.00;101582.53;5118450;27;20023;-69
2023/12/03 02:55:39;;;;;;;14.85;7.80;;;;;;;-1.00;79.02;101573.44;5117928;28;20063;-68
2023/12/03 02:58:04;;;;;;;15.65;8.38;;;;;;;-1.00;78.88;101582.19;5116392;28;20066;-68
2023/12/03 03:00:30;;;;;;;14.30;7.70;;;;;;;-1.00;79.13;101573.44;5098505;28;20055;-69
2023/12/03 03:02:55;;;;;;;13.18;8.00;;;;;;;-1.04;78.57;101583.38;5112539;28;20035;-69
2023/12/03 03:05:21;;;;;;;13.98;7.97;;;;;;;-1.03;78.76;101578.91;5114710;28;20044;-69
2023/12/03 03:07:46;;;;;;;11.52;7.40;;;;;;;-1.06;78.64;101577.38;5118098;28;20023;-69
2023/12/03 03:10:12;;;;;;;12.68;8.30;;;;;;;-1.07;78.99;101573.00;5117778;28;20062;-68
2023/12/03 03:12:37;;;;;;;13.30;7.95;;;;;;;-1.20;79.18;101570.34;5116625;28;20060;-69
2023/12/03 03:15:03;;;;;;;11.57;7.60;;;;;;;-1.41;80.14;101577.09;5117031;28;20540;-69
2023/12/03 03:17:28;;;;;;;14.02;7.93;;;;;;;-1.61;80.54;101575.78;5116364;28;20497;-69
2023/12/03 03:19:53;;;;;;;12.00;7.95;;;;;;;-1.29;79.69;101588.59;5116798;28;20119;-68
2023/12/03 03:22:19;;;;;;;13.52;8.23;;;;;;;-1.27;79.54;101592.00;5116388;28;20099;-69
2023/12/03 03:24:44;;;;;;;14.05;7.63;;;;;;;-1.42;80.03;101578.06;5099268;28;20084;-68
2023/12/03 03:27:09;;;;;;;12.85;7.25;;;;;;;-1.42;79.78;101594.72;5117330;28;20035;-69
2023/12/03 03:29:36;;;;;;;13.95;7.50;;;;;;;-1.40;79.73;101596.41;5115855;28;20027;-69
2023/12/03 03:32:01;;;;;;;11.73;7.13;;;;;;;-1.40;79.24;101599.06;5116384;28;20065;-68
2023/12/03 03:34:26;;;;;;;15.82;8.32;;;;;;;-1.40;79.26;101599.91;5117704;28;20035;-69
2023/12/03 03:36:52;;;;;;;12.20;7.38;;;;;;;-1.40;79.45;101605.19;5115815;28;20067;-69
2023/12/03 03:39:17;;;;;;;12.48;7.28;;;;;;;-1.36;79.83;101606.66;5095502;28;20431;-68
2023/12/03 03:41:42;;;;;;;12.63;7.68;;;;;;;-1.39;79.12;101600.75;5114574;28;20031;-69
2023/12/03 03:44:08;;;;;;;11.85;7.88;;;;;;;-1.44;79.21;101583.41;5115809;28;20114;-69
2023/12/03 03:46:33;;;;;;;11.00;7.30;;;;;;;-1.48;80.10;101605.69;5133022;27;20027;-68
2023/12/03 03:48:58;;;;;;;12.75;7.20;;;;;;;-1.60;79.31;101561.63;5115750;28;20028;-68
2023/12/03 03:51:24;;;;;;;12.07;7.50;;;;;;;-1.42;79.80;101602.66;5117919;28;20091;-68
2023/12/03 03:53:50;;;;;;;11.75;7.15;;;;;;;-1.44;79.76;101603.69;5116859;28;20027;-68
2023/12/03 03:56:16;;;;;;;11.15;7.22;;;;;;;-1.60;80.23;101595.94;5115504;28;20035;-68
2023/12/03 03:58:41;;;;;;;10.27;6.75;;;;;;;-1.45;79.75;101602.00;5115389;28;20052;-69
2023/12/03 04:01:07;;;;;;;11.30;6.85;;;;;;;-1.69;81.20;101607.09;5115345;28;20118;-68
2023/12/03 04:03:33;;;;;;;11.68;6.80;;;;;;;-1.59;81.08;101604.69;5115492;28;20134;-69
2023/12/03 04:06:06;;;;;;;11.52;6.55;;;;;;;-1.72;81.33;101607.31;5116625;28;20443;-68
2023/12/03 04:08:32;;;;;;;12.13;7.53;;;;;;;-1.63;81.44;101611.97;5116389;28;20032;-68
2023/12/03 04:11:02;;;;;;;13.30;6.82;;;;;;;-1.62;81.30;101607.53;5115558;28;20031;-68
2023/12/03 04:13:28;;;;;;;11.32;7.60;;;;;;;-1.58;80.61;101612.53;5115198;28;20462;-69
2023/12/03 04:15:53;;;;;;;11.85;6.82;;;;;;;-1.63;81.16;101611.97;5115154;28;20055;-69
2023/12/03 04:18:18;;;;;;;14.95;7.22;;;;;;;-1.64;80.59;101605.00;5116810;28;20028;-68
2023/12/03 04:20:44;;;;;;;14.20;7.38;;;;;;;-1.66;80.88;101617.44;5115053;28;20031;-68
2023/12/03 04:23:09;;;;;;;12.85;7.18;;;;;;;-1.57;80.65;101622.13;5116499;28;20114;-69
2023/12/03 04:25:34;;;;;;;11.15;7.22;;;;;;;-1.55;80.07;101619.41;5116579;28;20035;-68
2023/12/03 04:28:01;;;;;;;13.75;7.97;;;;;;;-1.75;79.85;101602.25;5098052;28;20040;-68
2023/12/03 04:30:26;;;;;;;10.60;6.57;;;;;;;-1.56;79.34;101617.69;5114602;28;20040;-68
2023/12/03 04:32:52;;;;;;;10.73;6.57;;;;;;;-1.59;79.36;101629.31;5115341;28;20091;-69
2023/12/03 04:35:17;;;;;;;11.98;6.82;;;;;;;-1.61;79.07;101628.56;5132374;28;20106;-68
2023/12/03 04:37:42;;;;;;;12.23;7.63;;;;;;;-1.64;79.02;101636.69;5117005;28;20034;-69
2023/12/03 04:40:09;;;;;;;12.50;7.28;;;;;;;-1.68;78.95;101625.47;5116488;28;20027;-69
2023/12/03 04:42:35;;;;;;;12.93;7.00;;;;;;;-1.66;78.97;101634.16;5116592;28;20031;-68
2023/12/03 04:45:01;;;;;;;10.95;6.47;;;;;;;-1.64;78.74;101630.56;5113716;28;20057;-69
2023/12/03 04:47:26;;;;;;;10.55;6.55;;;;;;;-1.64;79.06;101634.03;5112671;28;20091;-68
2023/12/03 04:49:51;;;;;;;10.50;6.43;;;;;;;-1.63;78.41;101642.78;5092947;28;20122;-68
2023/12/03 04:52:17;;;;;;;11.93;6.75;;;;;;;-1.65;78.62;101635.00;5111776;28;20035;-69
2023/12/03 04:54:42;;;;;;;10.35;6.63;;;;;;;-1.63;79.09;101638.34;5113591;28;20685;-69
2023/12/03 04:57:08;;;;;;;11.63;6.53;;;;;;;-1.86;78.83;101605.53;5114394;28;20031;-69
2023/12/03 04:59:33;;;;;;;9.48;6.18;;;;;;;-1.65;78.65;101648.19;5096276;28;20051;-69
2023/12/03 05:01:58;;;;;;;10.93;6.20;;;;;;;-1.74;78.62;101646.13;5114491;28;20024;-69
2023/12/03 05:04:25;;;;;;;12.75;6.82;;;;;;;-1.88;79.23;101643.53;5116177;28;20494;-69
2023/12/03 05:06:51;;;;;;;11.40;6.30;;;;;;;-1.88;79.40;101644.38;5097631;28;20335;-69
2023/12/03 05:09:17;;;;;;;10.68;6.32;;;;;;;-1.99;79.01;101639.78;5111150;28;20031;-69
2023/12/03 05:11:44;;;;;;;10.70;6.22;;;;;;;-1.98;79.21;101649.41;5111031;28;20080;-69
2023/12/03 05:14:09;;;;;;;10.68;6.35;;;;;;;-2.03;79.31;101650.63;5110663;28;20024;-69
2023/12/03 05:16:35;;;;;;;9.25;6.00;;;;;;;-2.04;79.18;101655.06;5113193;28;20027;-69
2023/12/03 05:19:00;;;;;;;9.52;5.95;;;;;;;-2.14;79.07;101651.31;5114878;28;20551;-69
2023/12/03 05:21:25;;;;;;;10.90;6.55;;;;;;;-2.49;80.45;101635.88;5114357;28;20038;-69
2023/12/03 05:23:51;;;;;;;12.25;6.55;;;;;;;-2.44;80.15;101639.09;5115832;28;20066;-69
2023/12/03 05:26:16;;;;;;;11.38;6.60;;;;;;;-2.28;80.06;101653.97;5097918;28;20057;-69
2023/12/03 05:28:42;;;;;;;8.65;5.88;;;;;;;-2.25;79.39;101659.03;5115111;28;20398;-69
2023/12/03 05:31:07;;;;;;;13.35;6.30;;;;;;;-2.21;78.95;101663.19;5115032;28;20038;-68
2023/12/03 05:33:33;;;;;;;10.48;5.70;;;;;;;-2.24;78.75;101664.22;5114741;28;20027;-69
2023/12/03 05:35:58;;;;;;;10.65;6.18;;;;;;;-2.28;78.97;101660.09;5114740;28;20080;-69
2023/12/03 05:38:23;;;;;;;11.18;5.70;;;;;;;-2.33;78.62;101661.31;5114681;28;20496;-69
2023/12/03 05:40:49;;;;;;;9.40;6.18;;;;;;;-2.32;78.71;101666.47;5115629;28;20070;-69
2023/12/03 05:43:15;;;;;;;10.45;6.28;;;;;;;-2.37;78.37;101666.75;5117360;28;20505;-69
2023/12/03 05:45:40;;;;;;;12.80;6.18;;;;;;;-2.40;78.28;101660.84;5115318;28;20019;-69
2023/12/03 05:48:06;;;;;;;10.00;5.05;;;;;;;-2.43;78.21;101664.50;5116473;28;20030;-69
2023/12/03 05:50:32;;;;;;;8.75;5.72;;;;;;;-2.43;77.81;101666.28;5116367;28;20037;-69
2023/12/03 05:52:57;;;;;;;9.43;5.38;;;;;;;-2.48;78.20;101663.09;5105803;28;20498;-69
2023/12/03 05:55:23;;;;;;;9.73;5.80;;;;;;;-2.51;77.90;101666.75;5097154;28;20198;-69
2023/12/03 05:57:48;;;;;;;8.85;5.05;;;;;;;-2.54;77.51;101660.84;5095687;28;20032;-69
2023/12/03 06:00:14;;;;;;;10.07;6.28;;;;;;;-2.59;77.91;101671.63;5096930;28;20055;-69
2023/12/03 06:02:39;;;;;;;10.40;6.30;;;;;;;-2.73;78.25;101669.84;5098523;28;20024;-69
2023/12/03 06:05:05;;;;;;;10.30;5.70;;;;;;;-2.87;79.25;101660.13;5080206;28;20058;-69
2023/12/03 06:07:31;;;;;;;11.60;5.82;;;;;;;-3.16;79.63;101632.03;5098245;28;20027;-69
2023/12/03 06:09:56;;;;;;;9.13;6.18;;;;;;;-2.88;79.43;101668.09;5098106;28;20088;-69
2023/12/03 06:12:21;;;;;;;7.47;5.38;;;;;;;-2.80;78.83;101672.94;5098417;28;20024;-69
2023/12/03 06:14:47;;;;;;;9.55;5.82;;;;;;;-2.80;78.35;101670.31;5097543;28;20061;-68
2023/12/03 06:17:12;;;;;;;9.40;5.28;;;;;;;-2.92;78.28;101656.91;5096845;28;20035;-69
2023/12/03 06:19:38;;;;;;;9.27;5.53;;;;;;;-2.88;78.28;101671.63;5096797;28;20497;-69
2023/12/03 06:22:03;;;;;;;12.05;7.15;;;;;;;-2.93;78.10;101683.34;5098233;28;20035;-68
2023/12/03 06:24:29;;;;;;;9.80;5.68;;;;;;;-3.03;78.46;101677.78;5097846;28;20039;-69
2023/12/03 06:26:54;;;;;;;10.82;7.65;;;;;;;-3.08;78.52;101688.59;5096267;28;20482;-69
2023/12/03 06:29:20;;;;;;;8.80;6.05;;;;;;;-3.16;78.37;101687.31;5096933;28;20123;-68
2023/12/03 06:31:47;;;;;;;11.57;6.30;;;;;;;-3.18;77.96;101673.41;5096646;28;20418;-68
2023/12/03 06:34:13;;;;;;;10.05;6.95;;;;;;;-3.15;78.11;101689.84;5098168;28;20024;-68
2023/12/03 06:36:38;;;;;;;11.30;7.55;;;;;;;-3.14;77.99;101693.38;5062396;28;20032;-69
2023/12/03 06:39:04;;;;;;;9.55;6.63;;;;;;;-3.19;78.42;101696.25;5097454;28;20028;-69
2023/12/03 06:41:29;;;;;;;8.65;6.28;;;;;;;-3.22;77.84;101698.19;5097953;28;20092;-69
2023/12/03 06:43:54;;;;;;;9.23;6.20;;;;;;;-3.31;77.99;101700.44;5096628;28;20028;-69
2023/12/03 06:46:20;;;;;;;12.13;6.95;;;;;;;-3.34;77.58;101699.78;5097654;28;20112;-70
2023/12/03 06:48:45;;;;;;;11.93;6.97;;;;;;;-3.34;78.07;101705.88;5092754;28;20063;-69
2023/12/03 06:51:10;;;;;;;8.75;5.57;;;;;;;-3.54;77.59;101669.31;5059720;28;20139;-68
2023/12/03 06:53:36;;;;;;;26.02;13.73;;;;;;;-3.38;77.39;101704.38;5094821;28;20028;-69
2023/12/03 06:56:01;;;;;;;18.35;10.68;;;;;;;-3.40;77.33;101708.84;5096412;28;20032;-71
2023/12/03 06:58:27;;;;;;;18.30;11.02;;;;;;;-3.45;77.17;101705.63;5095456;28;20040;-70
2023/12/03 07:00:52;;;;;;;15.93;9.35;;;;;;;-3.53;77.06;101705.22;5097686;28;20028;-70
2023/12/03 07:03:17;;;;;;;11.40;6.82;;;;;;;-3.60;77.43;101717.03;5062327;28;20032;-70
2023/12/03 07:05:43;;;;;;;13.02;7.00;;;;;;;-3.82;77.50;101683.16;5095565;28;20028;-71
2023/12/03 07:08:08;;;;;;;10.70;6.60;;;;;;;-3.61;76.93;101718.81;5095585;28;20035;-75
2023/12/03 07:10:33;;;;;;;8.68;5.72;;;;;;;-3.62;76.96;101719.72;5092827;28;20032;-71
2023/12/03 07:12:59;;;;;;;10.65;5.70;;;;;;;-3.61;76.91;101716.19;5078308;28;20035;-72
2023/12/03 07:15:24;;;;;;;10.75;6.78;;;;;;;-3.71;76.77;101712.31;5078432;28;20038;-73
2023/12/03 07:17:49;;;;;;;9.73;5.53;;;;;;;-3.78;77.06;101722.34;5078390;28;20039;-73
2023/12/03 07:20:17;;;;;;;8.93;5.30;;;;;;;-3.82;76.69;101699.78;5094194;28;20487;-71
2023/12/03 07:22:43;;;;;;;9.73;5.65;;;;;;;-3.87;76.54;101720.22;5093031;28;20028;-71
2023/12/03 07:25:08;;;;;;;10.60;6.13;;;;;;;-3.95;76.69;101722.41;5076078;28;20478;-68
2023/12/03 07:27:34;;;;;;;12.50;6.60;;;;;;;-3.85;77.06;101725.41;5096948;28;20032;-71
2023/12/03 07:29:59;;;;;;;13.13;7.10;;;;;;;-3.82;76.98;101731.34;5097137;28;20032;-70
2023/12/03 07:32:25;;;;;;;12.27;6.30;;;;;;;-3.78;76.39;101735.50;5079120;28;20499;-70
2023/12/03 07:34:51;;;;;;;10.02;5.93;;;;;;;-3.74;76.15;101730.94;5096019;28;20031;-72
2023/12/03 07:37:17;;;;;;;9.93;5.45;;;;;;;-3.74;76.04;101732.69;5095336;28;20138;-68
2023/12/03 07:39:42;;;;;;;9.20;5.15;;;;;;;-3.88;76.11;101717.69;5095261;28;20028;-68
2023/12/03 07:42:08;;;;;;;7.30;4.65;;;;;;;-3.78;75.98;101735.50;5096351;28;20584;-68
2023/12/03 07:44:33;;;;;;;10.63;5.20;;;;;;;-3.85;76.28;101742.00;5095090;28;20032;-69
2023/12/03 07:46:59;;;;;;;13.70;7.72;;;;;;;-3.87;76.49;101740.44;5096187;28;20035;-68
2023/12/03 07:49:24;;;;;;;21.23;11.60;;;;;;;-3.90;75.92;101741.44;5077862;28;20035;-67
2023/12/03 07:51:50;;;;;;;13.82;7.80;;;;;;;-3.98;75.81;101735.72;5077838;28;20039;-67
2023/12/03 07:54:16;;;;;;;8.85;5.97;;;;;;;-3.96;75.66;101754.06;5095949;28;20495;-69
2023/12/03 07:56:42;;;;;;;8.38;4.75;;;;;;;-3.95;75.76;101750.50;5094511;28;20032;-69
2023/12/03 07:59:08;;;;;;;9.27;5.43;;;;;;;-3.87;75.56;101756.19;5095805;28;20056;-69
2023/12/03 08:01:34;;;;;;;12.43;5.70;;;;;;;-3.95;75.67;101732.09;5095956;28;20039;-69
2023/12/03 08:04:00;;;;;;;14.93;7.40;;;;;;;-3.80;75.67;101763.66;5072484;28;20482;-68
2023/12/03 08:06:26;;;;;;;18.05;10.50;;;;;;;-3.85;75.92;101760.44;5094834;28;20024;-68
2023/12/03 08:08:52;;;;;;;18.20;9.25;;;;;;;-3.71;75.70;101767.56;5095822;28;20031;-67
2023/12/03 08:11:18;;;;;;;16.88;9.07;;;;;;;-3.73;75.27;101764.19;5093032;28;20028;-67
2023/12/03 08:13:44;;;;;;;14.20;8.52;;;;;;;-3.86;75.05;101747.38;5094435;28;20024;-67
2023/12/03 08:16:09;;;;;;;17.42;9.73;;;;;;;-3.63;75.49;101775.06;5076241;28;20036;-68
2023/12/03 08:18:35;;;;;;;30.58;14.73;;;;;;;-3.68;75.08;101779.69;5092534;28;20081;-67
2023/12/03 08:21:00;;;;;;;27.05;12.82;;;;;;;-3.56;75.36;101776.41;5094208;28;20039;-67
2023/12/03 08:23:26;;;;;;;24.65;13.25;;;;;;;-3.66;75.51;101749.75;5091898;28;20031;-69
2023/12/03 08:25:52;;;;;;;24.25;11.98;;;;;;;-3.40;75.44;101779.06;5091683;28;20024;-68
2023/12/03 08:28:18;;;;;;;26.25;14.13;;;;;;;-3.41;75.63;101777.34;5095175;28;20047;-68
2023/12/03 08:30:43;;;;;;;30.13;15.43;;;;;;;-3.34;75.37;101770.81;5096052;28;20054;-67
2023/12/03 08:33:09;;;;;;;25.85;14.35;;;;;;;-3.28;75.37;101788.03;5095945;28;20024;-67
2023/12/03 08:35:35;;;;;;;25.65;21.42;;;;;;;-3.31;76.63;101783.81;5094641;28;20037;-68
2023/12/03 08:38:00;;;;;;;13.48;9.13;;;;;;;-3.33;76.99;101773.34;5095207;28;20058;-68
2023/12/03 08:40:26;;;;;;;8.05;4.80;;;;;;;-3.51;78.69;101784.88;5094626;28;20030;-67
2023/12/03 08:42:51;;;;;;;10.50;6.47;;;;;;;-3.38;79.07;101785.06;5094686;28;20024;-68
2023/12/03 08:45:16;;;;;;;9.57;6.50;;;;;;;-3.27;79.64;101777.44;5095628;28;20028;-68
2023/12/03 08:47:42;;;;;;;9.15;4.90;;;;;;;-3.24;79.23;101789.59;5094465;28;20412;-68
2023/12/03 08:50:08;;;;;;;8.07;5.28;;;;;;;-3.14;79.46;101793.41;5094033;28;20505;-69
2023/12/03 08:52:33;;;;;;;7.32;4.82;;;;;;;-3.26;80.32;101789.66;5095968;28;20043;-68
2023/12/03 08:55:00;;;;;;;7.45;4.72;;;;;;;-3.41;81.49;101790.50;5094680;28;20032;-69
2023/12/03 08:57:26;;;;;;;6.03;3.95;;;;;;;-3.31;82.10;101800.44;5078080;28;20036;-69
2023/12/03 08:59:53;;;;;;;6.22;4.05;;;;;;;-3.27;82.79;101798.50;5095854;28;20054;-69
2023/12/03 09:02:19;;;;;;;5.63;3.60;;;;;;;-3.21;82.52;101782.34;5094671;28;20024;-68
2023/12/03 09:04:45;;;;;;;6.97;4.32;;;;;;;-3.10;82.28;101771.22;5095788;28;20024;-68
2023/12/03 09:07:10;;;;;;;6.28;3.72;;;;;;;-2.77;81.59;101792.13;5095911;28;20471;-68
2023/12/03 09:09:37;;;;;;;6.22;4.22;;;;;;;-2.68;82.03;101801.28;5077994;28;20502;-68
2023/12/03 09:12:03;;;;;;;6.40;3.97;;;;;;;-2.71;81.37;101806.75;5094455;28;20024;-70
2023/12/03 09:14:28;;;;;;;6.60;3.60;;;;;;;-2.62;81.00;101804.44;5096226;28;20398;-70
2023/12/03 09:16:54;;;;;;;5.97;4.05;;;;;;;-2.60;80.95;101797.25;5097078;28;20110;-70
2023/12/03 09:19:20;;;;;;;37.78;19.73;;;;;;;-2.43;80.12;101814.72;5080776;28;20031;-70
2023/12/03 09:21:45;;;;;;;27.67;14.82;;;;;;;-2.52;80.26;101809.97;5098321;28;20047;-69
2023/12/03 09:24:12;;;;;;;12.68;7.78;;;;;;;-2.58;80.39;101817.41;5098106;28;20028;-69
2023/12/03 09:26:37;;;;;;;18.08;10.38;;;;;;;-2.65;80.53;101796.69;5098065;28;20570;-71
2023/12/03 09:29:02;;;;;;;8.52;6.18;;;;;;;-2.56;81.04;101815.53;5080775;28;20748;-69
2023/12/03 09:31:28;;;;;;;4.85;3.58;;;;;;;-2.54;81.51;101824.22;5099281;28;20039;-70
2023/12/03 09:33:53;;;;;;;8.75;6.30;;;;;;;-2.63;82.10;101830.84;5099135;28;20066;-69
2023/12/03 09:36:19;;;;;;;17.70;12.45;;;;;;;-2.43;81.85;101821.78;5098733;28;20035;-71
2023/12/03 09:38:44;;;;;;;11.45;7.53;;;;;;;-2.40;81.64;101826.88;5080402;28;20039;-69
2023/12/03 09:41:13;;;;;;;33.63;20.80;;;;;;;-2.38;81.54;101825.84;5080403;28;20100;-69
2023/12/03 09:43:41;;;;;;;19.48;11.43;;;;;;;-2.15;80.65;101818.38;5097259;28;20028;-69
2023/12/03 09:46:14;;;;;;;13.60;7.38;;;;;;;-2.09;80.25;101817.13;5098271;28;20023;-69
2023/12/03 09:48:42;;;;;;;46.97;20.63;;;;;;;-2.13;80.07;101819.09;5098643;28;20055;-68
2023/12/03 09:51:10;;;;;;;58.20;24.17;;;;;;;-2.30;80.83;101798.19;5098254;28;20064;-69
2023/12/03 09:53:41;;;;;;;76.53;35.90;;;;;;;-2.49;82.43;101812.44;5080706;28;20402;-68
2023/12/03 09:56:07;;;;;;;227.02;92.15;;;;;;;-2.38;82.63;101814.47;5097540;28;20118;-70
2023/12/03 09:58:33;;;;;;;80.80;35.97;;;;;;;-2.31;82.50;101812.31;5096859;28;20071;-69
2023/12/03 10:01:00;;;;;;;39.45;20.85;;;;;;;-2.16;81.21;101780.59;5093889;28;20028;-69
2023/12/03 10:03:26;;;;;;;29.48;14.13;;;;;;;-2.07;81.29;101820.53;5097471;28;20151;-69
2023/12/03 10:05:51;;;;;;;28.13;14.23;;;;;;;-2.04;81.54;101818.56;5097197;28;20552;-69
2023/12/03 10:08:17;;;;;;;38.38;18.05;;;;;;;-2.13;81.27;101805.94;5076974;28;20047;-70
2023/12/03 10:10:46;;;;;;;105.53;45.33;;;;;;;-1.83;80.95;101820.81;5096812;28;20034;-70
2023/12/03 10:13:13;;;;;;;68.32;27.63;;;;;;;-1.66;80.52;101816.22;5096520;28;20457;-71
2023/12/03 10:15:39;;;;;;;65.88;30.45;;;;;;;-1.69;80.36;101805.84;5095443;28;20028;-72
2023/12/03 10:18:05;;;;;;;76.97;35.50;;;;;;;-1.56;79.79;101810.34;5094208;28;20028;-73
2023/12/03 10:20:31;;;;;;;87.40;33.90;;;;;;;-1.66;80.12;101808.31;5078698;28;20031;-70
2023/12/03 10:22:58;;;;;;;16.88;8.48;;;;;;;-1.76;80.81;101815.06;5095991;28;20119;-73
2023/12/03 10:25:30;;;;;;;58.45;23.60;;;;;;;-1.77;80.98;101805.47;5096752;28;20092;-72
2023/12/03 10:27:56;;;;;;;39.30;14.93;;;;;;;-2.04;81.82;101796.63;5094999;28;20476;-72
2023/12/03 10:30:22;;;;;;;149.95;52.13;;;;;;;-1.96;81.89;101811.00;5077828;28;20040;-70
2023/12/03 10:32:47;;;;;;;73.35;26.23;;;;;;;-2.18;82.75;101785.13;5096014;28;20406;-69
2023/12/03 10:35:13;;;;;;;50.63;21.55;;;;;;;-2.10;82.23;101782.00;5095439;28;20487;-70
2023/12/03 10:37:38;;;;;;;23.92;13.10;;;;;;;-1.84;81.91;101803.31;5078105;28;20035;-69
2023/12/03 10:40:04;;;;;;;11.75;10.25;;;;;;;-1.90;81.74;101808.00;5096437;28;20036;-68
2023/12/03 10:42:33;;;;;;;5.55;4.63;;;;;;;-1.85;81.76;101791.91;5095371;28;20028;-69
2023/12/03 10:45:07;;;;;;;4.18;3.42;;;;;;;-1.64;81.16;101791.53;5097648;28;20020;-69
2023/12/03 10:47:33;;;;;;;5.30;3.50;;;;;;;-1.56;81.03;101787.44;5095960;28;20410;-69
2023/12/03 10:50:00;;;;;;;4.97;3.20;;;;;;;-1.50;80.86;101812.63;5096551;28;20122;-69
2023/12/03 10:52:27;;;;;;;4.20;3.72;;;;;;;-1.37;80.60;101804.78;5096503;28;20024;-67
2023/12/03 10:54:52;;;;;;;5.85;3.47;;;;;;;-1.34;80.46;101808.06;5097742;28;20077;-67
2023/12/03 10:57:18;;;;;;;3.97;3.08;;;;;;;-1.22;79.42;101804.66;5098001;28;20115;-67
2023/12/03 10:59:47;;;;;;;4.22;3.00;;;;;;;-1.19;79.46;101801.81;5097253;28;20051;-68
2023/12/03 11:02:15;;;;;;;4.32;2.92;;;;;;;-1.58;80.51;101775.31;5096487;28;20024;-67
2023/12/03 11:04:56;;;;;;;4.10;2.72;;;;;;;-1.56;80.74;101800.63;5095199;28;20024;-67
2023/12/03 11:07:22;;;;;;;3.97;2.65;;;;;;;-1.66;81.57;101799.53;5091523;28;20118;-66
2023/12/03 11:09:49;;;;;;;5.22;3.20;;;;;;;-1.44;80.68;101801.66;5094095;28;20092;-67